Time;durP1;ratioP1;P1;durP2;ratioP2;P2;SDS_P1;SDS_P2;PMS_P1;PMS_P2;Temp;Humidity;BMP_temperature;BMP_pressure;BME280_temperature;BME280_humidity;BME280_pressure;Samples;Min_cycle;Max_cycle;Signal;HPM_P1;HPM_P2
2022/12/26 00:00:34;;;;;;;5.00;4.70;;;;;;;10.36;100.00;100668.38;6141536;23;20009;-74
2022/12/26 00:03:00;;;;;;;4.80;4.60;;;;;;;10.08;100.00;100611.25;6136321;23;20491;-74
2022/12/26 00:05:27;;;;;;;6.03;5.55;;;;;;;10.11;100.00;100638.16;6168007;23;20029;-74
2022/12/26 00:07:53;;;;;;;6.10;5.50;;;;;;;10.26;100.00;100662.72;6137867;23;20063;-75
2022/12/26 00:10:20;;;;;;;5.50;4.90;;;;;;;9.48;100.00;100556.59;6122146;23;20361;-74
2022/12/26 00:12:46;;;;;;;5.40;4.97;;;;;;;9.32;100.00;100543.44;6170965;23;20016;-75
2022/12/26 00:15:12;;;;;;;5.00;4.70;;;;;;;9.72;100.00;100617.41;6117274;23;20510;-75
2022/12/26 00:17:39;;;;;;;10.57;4.80;;;;;;;9.50;100.00;100589.69;6167438;23;20029;-75
2022/12/26 00:20:06;;;;;;;4.70;4.50;;;;;;;9.50;100.00;100602.78;6114921;23;20021;-76
2022/12/26 00:22:33;;;;;;;4.90;4.70;;;;;;;9.54;100.00;100592.97;6153563;23;20113;-75
2022/12/26 00:24:59;;;;;;;5.13;4.82;;;;;;;8.68;100.00;100467.13;6136475;23;20224;-74
2022/12/26 00:27:26;;;;;;;4.90;4.60;;;;;;;9.63;100.00;100631.00;6150119;23;20230;-74
2022/12/26 00:29:52;;;;;;;5.28;4.97;;;;;;;9.41;100.00;100565.72;6114971;23;20550;-74
2022/12/26 00:32:19;;;;;;;4.68;4.47;;;;;;;9.89;100.00;100650.66;6167117;23;20183;-74
2022/12/26 00:34:45;;;;;;;4.68;4.43;;;;;;;9.95;100.00;100673.94;6139801;23;20021;-74
2022/12/26 00:37:11;;;;;;;8.05;4.78;;;;;;;9.61;100.00;100596.16;6140971;23;20131;-74
2022/12/26 00:39:38;;;;;;;12.20;4.47;;;;;;;9.71;100.00;100620.97;6135752;23;20377;-74
2022/12/26 00:42:04;;;;;;;5.22;4.88;;;;;;;9.37;100.00;100552.75;6135517;23;20414;-74
2022/12/26 00:44:31;;;;;;;4.97;4.63;;;;;;;9.71;100.00;100607.88;6165759;23;20028;-74
2022/12/26 00:46:57;;;;;;;5.70;5.30;;;;;;;8.75;100.00;100433.66;6131443;23;20010;-74
2022/12/26 00:49:24;;;;;;;5.13;4.82;;;;;;;10.07;100.00;100656.75;6147451;23;20416;-75
2022/12/26 00:51:51;;;;;;;5.10;4.80;;;;;;;9.95;100.00;100650.34;6146153;23;20050;-74
2022/12/26 00:54:18;;;;;;;4.72;4.43;;;;;;;10.09;100.00;100671.47;6157091;23;20025;-74
2022/12/26 00:56:44;;;;;;;4.75;4.45;;;;;;;9.61;100.00;100601.41;6119008;23;20106;-73
2022/12/26 00:59:11;;;;;;;5.22;4.93;;;;;;;10.13;100.00;100664.31;6138965;23;20021;-74
2022/12/26 01:01:37;;;;;;;4.80;4.50;;;;;;;9.73;100.00;100595.53;6145455;23;20138;-74
2022/12/26 01:04:04;;;;;;;4.68;4.38;;;;;;;9.73;100.00;100591.16;6147637;23;20024;-74
2022/12/26 01:06:31;;;;;;;5.18;4.88;;;;;;;10.26;100.00;100688.13;6141441;23;20042;-75
2022/12/26 01:08:58;;;;;;;5.10;4.72;;;;;;;10.31;100.00;100687.00;6148578;23;20034;-75
2022/12/26 01:11:40;;;;;;;4.60;4.40;;;;;;;9.73;100.00;100611.28;6111514;23;20020;-74
2022/12/26 01:14:16;;;;;;;6.20;4.80;;;;;;;10.45;100.00;100703.81;6173426;23;20077;-73
2022/12/26 01:16:44;;;;;;;5.05;4.75;;;;;;;10.62;100.00;100710.81;6140004;23;20114;-75
2022/12/26 01:19:11;;;;;;;5.03;4.72;;;;;;;10.31;100.00;100670.41;6145428;23;20035;-74
2022/12/26 01:21:38;;;;;;;5.10;4.80;;;;;;;10.35;100.00;100680.66;6143027;23;20025;-75
2022/12/26 01:24:06;;;;;;;4.60;4.40;;;;;;;10.63;100.00;100718.59;6147019;23;20028;-75
2022/12/26 01:26:32;;;;;;;5.28;4.95;;;;;;;10.46;100.00;100700.25;6167491;23;20044;-75
2022/12/26 01:28:59;;;;;;;5.25;4.50;;;;;;;9.99;100.00;100629.13;6145756;23;20137;-74
2022/12/26 01:31:25;;;;;;;6.03;5.63;;;;;;;10.25;100.00;100668.94;6141568;23;20222;-74
2022/12/26 01:33:52;;;;;;;7.32;5.10;;;;;;;10.12;100.00;100668.72;6166816;23;20443;-74
2022/12/26 01:36:18;;;;;;;5.07;4.78;;;;;;;10.57;100.00;100753.03;6122174;23;20073;-73
2022/12/26 01:38:45;;;;;;;5.10;4.80;;;;;;;10.37;100.00;100718.16;6174522;23;20032;-74
2022/12/26 01:41:18;;;;;;;8.95;5.47;;;;;;;10.44;100.00;100718.69;6121846;23;20092;-74
2022/12/26 01:43:48;;;;;;;4.97;4.63;;;;;;;10.58;100.00;100755.59;6173125;23;20020;-74
2022/12/26 01:46:18;;;;;;;5.00;4.70;;;;;;;10.61;100.00;100757.19;6139943;23;20029;-74
2022/12/26 01:48:45;;;;;;;4.80;4.55;;;;;;;10.46;100.00;100726.50;6136702;23;20148;-74
2022/12/26 01:51:13;;;;;;;8.85;4.60;;;;;;;10.35;100.00;100706.06;6157160;23;20052;-73
2022/12/26 01:53:46;;;;;;;6.40;4.97;;;;;;;10.51;100.00;100727.13;6145559;23;20074;-74
2022/12/26 01:56:22;;;;;;;7.03;4.88;;;;;;;10.05;100.00;100637.63;6173891;23;20028;-74
2022/12/26 01:58:54;;;;;;;5.25;4.85;;;;;;;10.83;100.00;100751.69;6149260;23;20021;-74
2022/12/26 02:01:25;;;;;;;5.20;4.90;;;;;;;10.28;100.00;100654.78;6138766;23;20036;-74
2022/12/26 02:06:37;;;;;;;5.32;4.93;;;;;;;10.31;100.00;100689.63;6161673;23;20063;-74
2022/12/26 02:09:05;;;;;;;5.32;4.95;;;;;;;10.41;100.00;100712.78;6115304;23;20205;-74
2022/12/26 02:11:37;;;;;;;5.05;4.75;;;;;;;10.27;100.00;100697.72;6166494;23;20017;-74
2022/12/26 02:14:06;;;;;;;13.18;4.85;;;;;;;10.57;100.00;100764.38;6136094;23;20013;-73
2022/12/26 02:16:34;;;;;;;5.00;4.63;;;;;;;10.66;100.00;100799.78;6165867;23;20031;-73
2022/12/26 02:19:02;;;;;;;4.60;4.40;;;;;;;10.30;100.00;100736.91;6138587;23;20458;-74
2022/12/26 02:21:31;;;;;;;5.07;4.78;;;;;;;10.58;100.00;100788.84;6136377;23;20299;-74
2022/12/26 02:24:09;;;;;;;5.88;5.47;;;;;;;9.66;100.00;100641.31;6167340;23;20016;-74
2022/12/26 02:27:23;;;;;;;6.10;5.60;;;;;;;10.49;100.00;100790.16;6129608;23;20029;-74
2022/12/26 02:29:53;;;;;;;4.70;4.50;;;;;;;10.45;100.00;100808.75;6071667;23;20361;-74
2022/12/26 02:32:37;;;;;;;4.80;4.50;;;;;;;10.43;100.00;100797.50;6144521;23;20024;-74
2022/12/26 02:35:18;;;;;;;5.10;4.60;;;;;;;10.11;100.00;100752.69;6119204;23;20218;-74
2022/12/26 02:38:08;;;;;;;4.80;4.50;;;;;;;10.35;100.00;100795.25;6166190;23;20045;-75
2022/12/26 02:40:46;;;;;;;4.85;4.63;;;;;;;10.29;100.00;100791.13;6141169;23;20077;-76
2022/12/26 02:43:53;;;;;;;4.50;4.30;;;;;;;10.37;100.00;100798.66;6149679;23;20089;-75
2022/12/26 03:13:09;;;;;;;4.57;4.38;;;;;;;10.19;100.00;100789.88;6143803;23;20350;-76
2022/12/26 03:15:11;;;;;;;4.50;4.30;;;;;;;10.20;100.00;100783.69;6144639;23;20108;-76
2022/12/26 03:17:42;;;;;;;4.50;4.30;;;;;;;10.15;100.00;100776.06;6175768;23;20009;-76
2022/12/26 03:20:15;;;;;;;4.63;4.32;;;;;;;10.15;100.00;100768.19;6147000;23;20024;-75
2022/12/26 03:23:04;;;;;;;4.60;4.40;;;;;;;9.73;100.00;100700.38;6176892;23;20031;-76
2022/12/26 03:28:40;;;;;;;4.88;4.57;;;;;;;9.45;100.00;100661.56;6170859;23;20307;-74
2022/12/26 03:31:10;;;;;;;4.68;4.40;;;;;;;10.20;100.00;100778.44;6142775;23;20025;-76
2022/12/26 03:37:02;;;;;;;4.55;4.35;;;;;;;10.22;100.00;100794.13;6144029;23;20009;-75
2022/12/26 04:19:54;;;;;;;4.70;4.40;;;;;;;9.77;100.00;100806.75;6141559;23;20017;-76
2022/12/26 04:45:20;;;;;;;5.68;5.03;;;;;;;9.54;100.00;100776.38;6145225;23;20017;-77
2022/12/26 04:50:34;;;;;;;4.93;4.65;;;;;;;9.21;100.00;100715.94;6154638;23;20031;-75
2022/12/26 04:53:01;;;;;;;5.38;5.07;;;;;;;9.46;100.00;100760.16;6145735;23;20072;-75
2022/12/26 04:55:30;;;;;;;4.93;4.63;;;;;;;9.41;100.00;100747.28;6145103;23;20095;-75
2022/12/26 04:57:58;;;;;;;5.40;5.00;;;;;;;9.50;100.00;100761.72;6174780;23;20020;-75
2022/12/26 05:00:26;;;;;;;4.70;4.50;;;;;;;9.61;100.00;100790.06;6147544;23;20467;-75
2022/12/26 05:11:31;;;;;;;5.30;4.90;;;;;;;9.13;100.00;100752.94;6145187;23;20487;-75
2022/12/26 05:13:59;;;;;;;5.03;4.43;;;;;;;9.44;100.00;100789.06;6144932;23;20033;-77
2022/12/26 05:30:24;;;;;;;4.78;4.47;;;;;;;8.62;100.00;100687.16;6173626;23;20489;-76
2022/12/26 05:35:36;;;;;;;4.63;4.32;;;;;;;8.93;100.00;100725.88;6138622;23;20020;-76
2022/12/26 05:38:02;;;;;;;4.85;4.65;;;;;;;8.68;100.00;100706.94;6126987;23;20032;-75
2022/12/26 05:40:29;;;;;;;4.88;4.57;;;;;;;8.00;100.00;100571.31;6175075;23;20024;-76
2022/12/26 05:42:56;;;;;;;5.72;5.30;;;;;;;8.46;100.00;100633.81;6144413;23;20020;-76
2022/12/26 05:45:22;;;;;;;4.60;4.40;;;;;;;9.14;100.00;100759.84;6175286;23;20017;-76
2022/12/26 05:47:49;;;;;;;5.65;5.10;;;;;;;9.41;100.00;100802.28;6113891;23;20031;-77
2022/12/26 05:50:17;;;;;;;5.20;4.90;;;;;;;9.65;100.00;100802.09;6143524;23;20424;-76
2022/12/26 05:52:44;;;;;;;6.07;5.47;;;;;;;9.66;100.00;100791.53;6171594;23;20029;-76
2022/12/26 05:55:10;;;;;;;5.00;4.70;;;;;;;8.41;100.00;100591.31;6144346;23;20036;-76
2022/12/26 05:57:37;;;;;;;5.10;4.80;;;;;;;8.25;100.00;100571.06;6172643;23;20028;-77
2022/12/26 06:00:04;;;;;;;4.72;4.53;;;;;;;9.39;100.00;100780.56;6144160;23;20079;-76
2022/12/26 06:02:30;;;;;;;4.70;4.50;;;;;;;9.21;100.00;100766.53;6175201;23;20028;-76
2022/12/26 06:04:57;;;;;;;4.50;4.30;;;;;;;9.07;100.00;100727.88;6141210;23;20089;-76
2022/12/26 06:07:23;;;;;;;4.70;4.40;;;;;;;8.99;100.00;100719.53;6145137;23;20410;-77
2022/12/26 06:09:50;;;;;;;5.22;4.80;;;;;;;9.31;100.00;100778.28;6138651;23;20797;-76
2022/12/26 06:12:16;;;;;;;4.40;4.20;;;;;;;8.89;100.00;100716.47;6160521;23;20020;-76
2022/12/26 06:14:42;;;;;;;4.78;4.47;;;;;;;8.74;100.00;100698.84;6145050;23;20361;-77
2022/12/26 06:17:09;;;;;;;4.60;4.40;;;;;;;9.16;100.00;100774.59;6172549;23;20102;-77
2022/12/26 06:19:35;;;;;;;4.72;4.43;;;;;;;9.15;100.00;100767.66;6144689;23;20026;-77
2022/12/26 06:22:12;;;;;;;4.20;4.00;;;;;;;9.52;100.00;100817.50;6118779;23;20028;-76
2022/12/26 06:24:38;;;;;;;4.28;3.97;;;;;;;9.17;100.00;100771.06;6146024;23;20013;-75
2022/12/26 06:27:05;;;;;;;4.40;4.07;;;;;;;8.95;100.00;100731.06;6143032;23;20019;-76
2022/12/26 06:29:31;;;;;;;4.20;4.00;;;;;;;9.56;100.00;100826.94;6144912;23;20177;-76
2022/12/26 06:31:57;;;;;;;4.60;4.40;;;;;;;8.94;100.00;100724.09;6135758;23;20111;-76
2022/12/26 06:34:26;;;;;;;4.60;4.40;;;;;;;9.08;100.00;100758.41;6142942;23;20032;-76
2022/12/26 06:36:54;;;;;;;4.47;4.22;;;;;;;9.54;100.00;100819.16;6169880;23;20463;-76
2022/12/26 06:39:21;;;;;;;4.22;4.03;;;;;;;8.41;100.00;100638.38;6145557;23;20039;-76
2022/12/26 06:41:48;;;;;;;4.20;4.00;;;;;;;9.43;100.00;100816.16;6176946;23;20248;-76
2022/12/26 06:44:14;;;;;;;4.40;4.10;;;;;;;9.29;100.00;100801.06;6146298;23;20013;-78
2022/12/26 06:46:44;;;;;;;4.40;4.20;;;;;;;9.11;100.00;100766.09;6168258;23;20114;-75
2022/12/26 06:49:10;;;;;;;4.63;4.43;;;;;;;9.37;100.00;100814.66;6144601;23;20033;-76
2022/12/26 06:51:37;;;;;;;4.40;4.20;;;;;;;9.14;100.00;100776.44;6146313;23;20470;-75
2022/12/26 06:54:03;;;;;;;4.40;4.20;;;;;;;9.13;100.00;100779.13;6117165;23;20056;-76
2022/12/26 06:56:32;;;;;;;4.85;4.55;;;;;;;9.30;100.00;100808.03;6172090;23;20353;-76
2022/12/26 06:59:01;;;;;;;4.70;4.50;;;;;;;9.14;100.00;100792.16;6141904;23;20029;-75
2022/12/26 07:01:30;;;;;;;4.10;3.90;;;;;;;9.34;100.00;100827.94;6174675;23;20030;-76
2022/12/26 07:03:57;;;;;;;4.53;4.32;;;;;;;9.16;100.00;100794.69;6141454;23;20025;-76
2022/12/26 07:06:29;;;;;;;4.82;4.63;;;;;;;9.39;100.00;100827.72;6146600;23;20733;-77
2022/12/26 07:09:16;;;;;;;5.15;4.63;;;;;;;8.59;100.00;100714.28;6117710;23;20074;-77
2022/12/26 07:11:45;;;;;;;4.18;3.97;;;;;;;8.99;100.00;100782.34;6139244;23;20164;-75
2022/12/26 07:14:12;;;;;;;4.53;4.32;;;;;;;9.37;100.00;100840.03;6140562;23;20029;-77
2022/12/26 07:16:41;;;;;;;4.40;4.20;;;;;;;8.84;100.00;100762.09;6139326;23;20032;-77
2022/12/26 07:19:10;;;;;;;4.32;4.13;;;;;;;9.37;100.00;100842.63;6144941;23;20021;-75
2022/12/26 07:21:37;;;;;;;4.35;4.15;;;;;;;9.02;100.00;100778.75;6145611;23;20017;-77
2022/12/26 07:24:14;;;;;;;4.40;4.20;;;;;;;8.21;100.00;100668.84;6172992;23;20032;-77
2022/12/26 07:26:42;;;;;;;4.18;3.97;;;;;;;9.31;100.00;100856.84;6142672;23;20104;-76
2022/12/26 07:29:09;;;;;;;4.20;4.00;;;;;;;9.18;100.00;100819.91;6173340;23;20051;-76
2022/12/26 07:31:36;;;;;;;4.20;4.00;;;;;;;9.13;100.00;100837.56;6143272;23;20028;-77
2022/12/26 07:34:03;;;;;;;4.35;4.15;;;;;;;8.98;100.00;100818.16;6171277;23;20012;-76
2022/12/26 07:36:29;;;;;;;4.30;4.10;;;;;;;8.67;100.00;100747.13;6147787;23;20347;-76
2022/12/26 07:38:56;;;;;;;4.38;4.18;;;;;;;9.44;100.00;100880.75;6175898;23;20017;-76
2022/12/26 07:44:11;;;;;;;4.75;4.40;;;;;;;8.94;100.00;100845.38;6179046;23;20252;-78
2022/12/26 07:46:37;;;;;;;4.30;4.10;;;;;;;8.64;100.00;100807.41;6125880;23;20095;-79
2022/12/26 07:49:04;;;;;;;4.20;4.00;;;;;;;8.44;100.00;100763.78;6150473;23;20522;-79
2022/12/26 07:51:30;;;;;;;4.45;4.18;;;;;;;9.02;100.00;100897.41;6167486;23;20384;-78
2022/12/26 07:53:57;;;;;;;4.20;4.00;;;;;;;9.24;100.00;100897.34;6122457;23;20035;-78
2022/12/26 07:56:23;;;;;;;4.10;3.90;;;;;;;7.66;100.00;100668.53;6120267;23;20142;-79
2022/12/26 07:58:50;;;;;;;4.30;4.10;;;;;;;8.18;100.00;100700.38;6172071;23;20425;-79
2022/12/26 08:01:17;;;;;;;4.30;4.10;;;;;;;7.93;100.00;100680.47;6141313;23;20072;-79
2022/12/26 08:03:44;;;;;;;4.45;4.25;;;;;;;9.16;100.00;100895.06;6178704;23;20017;-81
2022/12/26 08:06:11;;;;;;;4.35;4.15;;;;;;;8.27;100.00;100760.09;6150703;23;20229;-78
2022/12/26 08:08:37;;;;;;;4.25;4.05;;;;;;;9.12;100.00;100898.72;6153658;23;20439;-78
2022/12/26 08:11:06;;;;;;;4.05;3.85;;;;;;;9.16;100.00;100916.00;6152117;23;20490;-79
2022/12/26 08:13:33;;;;;;;4.25;4.05;;;;;;;8.14;100.00;100756.31;6153975;23;20252;-79
2022/12/26 08:16:04;;;;;;;4.20;4.00;;;;;;;9.17;100.00;100904.59;6154176;23;20029;-80
2022/12/26 08:18:31;;;;;;;4.07;3.87;;;;;;;8.48;100.00;100796.75;6122672;23;20467;-78
2022/12/26 08:20:58;;;;;;;4.47;4.28;;;;;;;8.57;100.00;100836.47;6125477;23;20017;-79
2022/12/26 08:23:25;;;;;;;4.30;4.10;;;;;;;9.10;100.00;100923.25;6171350;23;20032;-78
2022/12/26 08:25:51;;;;;;;4.60;4.40;;;;;;;9.17;100.00;100933.41;6139993;23;20025;-77
2022/12/26 08:28:18;;;;;;;4.40;4.20;;;;;;;8.91;100.00;100883.91;6174420;23;20036;-78
2022/12/26 08:30:45;;;;;;;4.40;4.20;;;;;;;8.95;100.00;100888.09;6149836;23;20383;-77
2022/12/26 08:33:12;;;;;;;4.20;4.00;;;;;;;9.17;100.00;100933.41;6178671;23;20008;-77
2022/12/26 08:35:39;;;;;;;5.07;4.32;;;;;;;8.14;100.00;100748.47;6147388;23;20040;-77
2022/12/26 08:38:06;;;;;;;4.65;4.45;;;;;;;8.19;100.00;100746.50;6153790;23;20017;-77
2022/12/26 08:40:33;;;;;;;4.60;4.30;;;;;;;9.28;100.00;100927.72;6114174;23;20288;-77
2022/12/26 08:43:08;;;;;;;4.35;4.15;;;;;;;9.06;100.00;100905.97;6168095;23;20025;-77
2022/12/26 08:46:16;;;;;;;4.55;4.35;;;;;;;9.18;100.00;100939.47;6135225;23;20017;-78
2022/12/26 08:48:43;;;;;;;4.50;4.30;;;;;;;8.70;100.00;100881.28;6143244;23;20098;-81
2022/12/26 08:51:13;;;;;;;4.40;4.20;;;;;;;8.94;100.00;100910.81;6152485;23;20025;-79
2022/12/26 08:53:40;;;;;;;4.50;4.30;;;;;;;8.53;100.00;100852.34;6113025;23;20016;-79
2022/12/26 08:56:11;;;;;;;4.40;4.20;;;;;;;8.83;100.00;100888.63;6151585;23;20084;-80
2022/12/26 08:58:37;;;;;;;4.32;4.13;;;;;;;9.39;100.00;100970.00;6146201;23;20059;-80
2022/12/26 09:01:12;;;;;;;4.60;4.40;;;;;;;9.31;100.00;100960.78;6126378;23;20020;-79
2022/12/26 09:03:39;;;;;;;4.32;4.13;;;;;;;9.50;100.00;100974.78;6150133;23;20373;-80
2022/12/26 09:06:07;;;;;;;4.60;4.40;;;;;;;8.97;100.00;100873.19;6150085;23;20060;-80
2022/12/26 09:08:35;;;;;;;4.50;4.30;;;;;;;9.00;100.00;100899.25;6150811;23;20072;-79
2022/12/26 09:11:28;;;;;;;4.38;4.18;;;;;;;9.24;100.00;100910.44;6148364;23;20044;-78
2022/12/26 09:13:56;;;;;;;4.63;4.43;;;;;;;9.73;100.00;100991.28;6150731;23;20044;-79
2022/12/26 09:16:25;;;;;;;4.10;3.90;;;;;;;9.41;100.00;100932.41;6123366;23;20021;-79
2022/12/26 09:18:55;;;;;;;4.28;4.07;;;;;;;9.65;100.00;100959.31;6178868;23;20489;-78
2022/12/26 09:21:22;;;;;;;4.50;4.30;;;;;;;9.85;100.00;100989.88;6151544;23;20565;-77
2022/12/26 09:23:49;;;;;;;5.00;4.68;;;;;;;9.90;100.00;100986.13;6180763;23;20020;-78
2022/12/26 09:26:18;;;;;;;4.22;4.03;;;;;;;9.92;100.00;100988.66;6151637;23;20108;-81
2022/12/26 09:28:45;;;;;;;4.70;4.40;;;;;;;9.51;100.00;100931.94;6154791;23;20024;-80
2022/12/26 09:31:15;;;;;;;4.50;4.20;;;;;;;9.72;100.00;101000.91;6151764;23;20028;-80
2022/12/26 09:33:42;;;;;;;4.20;4.00;;;;;;;9.11;100.00;100867.34;6151218;23;20081;-81
2022/12/26 09:36:30;;;;;;;4.20;4.00;;;;;;;8.79;100.00;100833.78;6146370;23;20029;-81
2022/12/26 09:38:57;;;;;;;10.75;4.60;;;;;;;9.45;100.00;100955.78;6182322;23;20028;-79
2022/12/26 09:41:46;;;;;;;4.25;4.05;;;;;;;9.88;100.00;101035.16;6157798;23;20032;-77
2022/12/26 09:44:29;;;;;;;4.95;4.65;;;;;;;9.95;100.00;101035.75;6156440;23;20049;-78
2022/12/26 09:47:04;;;;;;;4.55;4.35;;;;;;;8.87;100.00;100853.56;6185228;23;20081;-79
2022/12/26 09:49:36;;;;;;;4.60;4.40;;;;;;;9.35;100.00;100942.22;6120653;23;20059;-78
2022/12/26 09:52:11;;;;;;;4.60;4.40;;;;;;;9.73;100.00;101025.34;6157461;23;20035;-79
2022/12/26 09:54:42;;;;;;;4.20;4.00;;;;;;;10.17;100.00;101052.22;6155081;23;21138;-79
2022/12/26 09:57:16;;;;;;;4.68;4.47;;;;;;;9.47;100.00;100981.94;6186691;23;20324;-79
2022/12/26 09:59:51;;;;;;;4.40;4.20;;;;;;;9.69;100.00;100972.19;6156973;23;20168;-81
2022/12/26 10:02:21;;;;;;;4.30;4.10;;;;;;;9.84;100.00;100996.88;6178600;23;20016;-80
2022/12/26 10:04:49;;;;;;;4.40;4.20;;;;;;;9.49;100.00;100907.56;6135252;23;20033;-80
2022/12/26 10:07:38;;;;;;;4.40;4.20;;;;;;;9.39;100.00;100882.72;6177920;23;20035;-82
2022/12/26 10:10:33;;;;;;;6.78;4.40;;;;;;;10.42;100.00;101045.88;6145537;23;20025;-80
2022/12/26 10:13:39;;;;;;;4.50;4.30;;;;;;;10.43;100.00;101052.00;6185598;23;20136;-81
2022/12/26 10:16:13;;;;;;;4.68;4.47;;;;;;;7.34;100.00;100545.38;6141515;23;20471;-82
2022/12/26 10:18:57;;;;;;;4.60;4.40;;;;;;;10.37;100.00;101043.47;6139232;23;20021;-79
2022/12/26 10:21:44;;;;;;;4.25;4.05;;;;;;;7.49;100.00;100573.44;6176182;23;20463;-82
2022/12/26 10:24:19;;;;;;;4.40;4.20;;;;;;;9.48;100.00;100919.00;6142559;23;20112;-81
2022/12/26 10:26:55;;;;;;;4.40;4.10;;;;;;;8.93;100.00;100798.31;6202065;23;20016;-80
2022/12/26 10:29:32;;;;;;;4.45;4.25;;;;;;;10.14;100.00;101007.78;6156679;23;20378;-81
2022/12/26 10:32:03;;;;;;;4.57;4.38;;;;;;;10.32;100.00;101044.59;6183718;23;20092;-81
2022/12/26 10:34:35;;;;;;;4.72;4.53;;;;;;;10.29;100.00;101032.44;6153575;23;20027;-82
2022/12/26 10:37:20;;;;;;;4.70;4.50;;;;;;;10.22;100.00;101022.31;6176183;23;20084;-83
2022/12/26 10:39:53;;;;;;;5.07;4.53;;;;;;;9.34;100.00;100884.66;6155790;23;20028;-84
2022/12/26 10:42:29;;;;;;;4.40;4.20;;;;;;;9.51;100.00;100907.53;6165158;23;20041;-81
2022/12/26 10:44:57;;;;;;;7.47;4.90;;;;;;;10.42;100.00;101042.41;6152428;23;20210;-82
2022/12/26 10:47:37;;;;;;;4.38;4.18;;;;;;;10.21;100.00;101000.47;6150362;23;20017;-79
2022/12/26 10:50:05;;;;;;;4.70;4.40;;;;;;;10.28;100.00;101027.25;6122932;23;20393;-79
2022/12/26 10:52:38;;;;;;;5.57;4.45;;;;;;;10.18;100.00;100997.97;6147342;23;20087;-78
2022/12/26 10:55:05;;;;;;;4.50;4.30;;;;;;;10.35;100.00;101049.72;6175360;23;20426;-78
2022/12/26 10:57:53;;;;;;;4.45;4.25;;;;;;;10.29;100.00;101021.13;6151764;23;20032;-80
2022/12/26 11:00:23;;;;;;;4.82;4.47;;;;;;;10.25;100.00;101032.66;6151222;23;20058;-79
2022/12/26 11:03:19;;;;;;;4.85;4.65;;;;;;;9.98;100.00;100998.88;6160618;23;20109;-80
2022/12/26 11:05:50;;;;;;;6.55;5.60;;;;;;;9.61;100.00;100953.34;6142303;23;20033;-81
2022/12/26 11:08:38;;;;;;;4.40;4.20;;;;;;;10.12;100.00;101024.47;6146920;23;20551;-80
2022/12/26 11:11:44;;;;;;;4.65;4.45;;;;;;;7.89;100.00;100673.66;6129167;23;20380;-80
2022/12/26 11:14:27;;;;;;;4.83;4.50;;;;;;;10.17;100.00;101035.63;6147761;23;20017;-78
2022/12/26 11:17:03;;;;;;;4.55;4.35;;;;;;;8.59;100.00;100760.53;6141163;23;20464;-80
2022/12/26 11:19:40;;;;;;;4.20;4.00;;;;;;;9.77;100.00;100958.75;6172548;23;20021;-81
2022/12/26 11:22:24;;;;;;;12.10;6.05;;;;;;;10.33;100.00;101039.28;6119622;23;20443;-84
2022/12/26 11:25:18;;;;;;;47.25;16.75;;;;;;;10.31;100.00;101035.03;6157292;23;20008;-82
2022/12/26 11:27:55;;;;;;;37.45;16.27;;;;;;;9.96;100.00;100975.38;6118352;23;20029;-82
2022/12/26 11:30:35;;;;;;;7.82;7.10;;;;;;;10.35;100.00;101026.94;6155572;23;20354;-82
2022/12/26 11:33:08;;;;;;;6.68;5.80;;;;;;;10.38;100.00;101025.94;6147765;23;20013;-81
2022/12/26 11:35:50;;;;;;;10.18;5.70;;;;;;;10.41;100.00;101025.81;6188328;23;20080;-81
2022/12/26 11:38:35;;;;;;;5.40;4.97;;;;;;;10.52;100.00;101025.31;6131031;23;20287;-81
2022/12/26 11:41:35;;;;;;;5.25;4.95;;;;;;;9.89;100.00;100911.03;6172271;23;20027;-83
2022/12/26 11:44:08;;;;;;;4.45;4.25;;;;;;;10.68;100.00;101026.28;6150674;23;20349;-82
2022/12/26 11:46:54;;;;;;;;;;;;;;;10.68;100.00;101015.78;6157144;23;20062;-81
2022/12/26 11:49:32;;;;;;;5.90;5.30;;;;;;;10.66;100.00;101016.78;6128321;23;19909;-82
2022/12/26 11:52:02;;;;;;;5.38;5.03;;;;;;;10.69;100.00;101024.53;6180298;23;20117;-83
2022/12/26 11:54:35;;;;;;;7.63;6.10;;;;;;;10.80;100.00;101024.03;6135985;23;20791;-82
2022/12/26 11:57:07;;;;;;;9.77;8.77;;;;;;;9.59;100.00;100813.69;6124098;23;19997;-82
2022/12/26 11:59:33;;;;;;;5.82;5.32;;;;;;;10.30;100.00;100903.03;6185460;23;20024;-81
2022/12/26 12:02:18;;;;;;;5.78;5.38;;;;;;;10.41;100.00;100918.25;6143687;23;20787;-83
2022/12/26 12:04:46;;;;;;;8.13;6.78;;;;;;;10.95;100.00;101012.78;6148510;23;20025;-80
2022/12/26 12:07:51;;;;;;;4.93;4.68;;;;;;;10.87;100.00;101017.56;6144530;23;20269;-81
2022/12/26 12:10:26;;;;;;;5.90;5.30;;;;;;;10.87;100.00;101010.53;6089698;23;20441;-81
2022/12/26 12:13:02;;;;;;;5.22;4.93;;;;;;;10.13;100.00;100908.19;6120853;23;20231;-81
2022/12/26 12:16:01;;;;;;;6.63;5.13;;;;;;;8.90;100.00;100717.31;6169528;23;20369;-81
2022/12/26 12:18:40;;;;;;;5.00;4.60;;;;;;;11.04;100.00;101017.56;6150543;23;20045;-80
2022/12/26 12:21:41;;;;;;;6.13;5.68;;;;;;;11.26;100.00;101025.25;6151206;23;20461;-81
2022/12/26 12:24:26;;;;;;;5.05;4.75;;;;;;;11.13;100.00;101004.00;6130239;23;20032;-82
2022/12/26 12:27:23;;;;;;;5.15;4.75;;;;;;;10.92;100.00;100994.53;6191397;23;20303;-81
2022/12/26 12:30:14;;;;;;;4.65;4.45;;;;;;;10.91;100.00;101022.56;6124085;23;20053;-81
2022/12/26 12:33:17;;;;;;;4.35;4.15;;;;;;;10.38;100.00;100986.59;6183516;23;20468;-79
2022/12/26 12:36:00;;;;;;;5.20;4.90;;;;;;;10.61;100.00;101045.91;6123700;23;20044;-83
2022/12/26 12:38:46;;;;;;;5.20;4.90;;;;;;;8.34;100.00;100717.09;6146827;23;20048;-84
2022/12/26 12:41:19;;;;;;;5.40;4.95;;;;;;;10.26;100.00;101023.88;6131739;23;20040;-87
2022/12/26 12:44:18;;;;;;;5.13;4.88;;;;;;;5.57;100.00;100270.81;6158964;23;20021;-84
2022/12/26 12:47:28;;;;;;;6.00;5.70;;;;;;;10.09;100.00;101027.25;6096597;23;20017;-84
2022/12/26 12:50:30;;;;;;;4.15;3.95;;;;;;;9.85;100.00;101023.97;6145801;23;20070;-85
2022/12/26 12:53:28;;;;;;;4.20;4.00;;;;;;;8.84;100.00;100874.59;6177663;23;20017;-85
2022/12/26 12:56:23;;;;;;;4.13;3.92;;;;;;;9.62;100.00;101027.56;6105592;23;20029;-82
2022/12/26 12:58:55;;;;;;;4.30;4.10;;;;;;;9.45;100.00;101034.38;6139332;23;20073;-82
2022/12/26 13:01:27;;;;;;;;;;;;;;;9.38;100.00;101046.00;6116970;23;20038;-81
2022/12/26 13:04:07;;;;;;;4.30;4.10;;;;;;;9.15;100.00;101063.53;6104104;23;19925;-81
2022/12/26 13:06:42;;;;;;;4.30;4.10;;;;;;;6.78;100.00;100711.06;6115874;23;20042;-85
2022/12/26 13:09:17;;;;;;;4.40;4.20;;;;;;;9.06;100.00;101087.47;6118631;23;20112;-82
2022/12/26 13:11:52;;;;;;;4.20;4.00;;;;;;;8.26;100.00;100996.34;6121076;23;20033;-83
2022/12/26 13:14:20;;;;;;;4.90;4.60;;;;;;;4.18;100.00;100378.75;6130009;23;20020;-83
2022/12/26 13:17:01;;;;;;;5.03;4.63;;;;;;;7.44;100.00;100946.19;6132214;23;20021;-83
2022/12/26 13:19:34;;;;;;;4.30;4.10;;;;;;;6.97;100.00;100792.94;6129978;23;20390;-86
2022/12/26 13:22:03;;;;;;;;;;;;;;;8.85;100.00;101104.03;6090292;23;20048;-83
2022/12/26 13:24:34;;;;;;;4.03;3.83;;;;;;;8.88;100.00;101116.97;6137497;23;20324;-85
2022/12/26 13:27:10;;;;;;;4.00;3.80;;;;;;;8.82;100.00;101112.84;6123048;23;20073;-84
2022/12/26 13:29:44;;;;;;;4.20;4.00;;;;;;;5.35;100.00;100573.50;6119058;23;20083;-85
2022/12/26 13:32:28;;;;;;;4.72;4.43;;;;;;;8.78;100.00;101119.97;6094895;23;20275;-84
2022/12/26 13:35:00;;;;;;;4.47;4.18;;;;;;;8.78;100.00;101124.34;6145339;23;20013;-83
2022/12/26 13:37:39;;;;;;;4.20;4.00;;;;;;;8.82;100.00;101130.28;6116480;23;20398;-85
2022/12/26 13:40:17;;;;;;;4.78;4.47;;;;;;;5.46;100.00;100598.31;6148144;23;20104;-84
2022/12/26 13:45:34;;;;;;;5.22;4.90;;;;;;;8.76;100.00;101142.72;6160753;23;20061;-80
2022/12/26 13:48:21;;;;;;;5.35;5.05;;;;;;;8.77;100.00;101143.56;6106234;23;20402;-81
2022/12/26 13:50:53;;;;;;;5.00;4.70;;;;;;;8.46;100.00;101108.09;6100880;23;20091;-88
2022/12/26 13:53:25;;;;;;;4.68;4.38;;;;;;;8.75;100.00;101156.69;6124155;23;20076;-81
2022/12/26 13:56:01;;;;;;;5.13;4.82;;;;;;;8.78;100.00;101153.97;6123701;23;20029;-81
2022/12/26 13:58:30;;;;;;;5.47;4.95;;;;;;;8.58;100.00;101159.09;6115254;23;20030;-81
2022/12/26 14:01:34;;;;;;;4.57;4.38;;;;;;;8.63;100.00;101156.31;6133036;23;20025;-79